createdAt,value
2023-04-02T00:00:34.824Z,0.00
2023-04-02T00:01:34.905Z,0.00
2023-04-02T00:02:34.893Z,0.00
2023-04-02T00:03:34.907Z,0.00
2023-04-02T00:04:34.766Z,0.00
2023-04-02T00:05:35.002Z,0.00
2023-04-02T00:06:34.747Z,0.00
2023-04-02T00:07:34.782Z,0.00
2023-04-02T00:08:34.706Z,0.00
2023-04-02T00:09:34.797Z,0.00
2023-04-02T00:10:34.715Z,0.00
2023-04-02T00:11:34.684Z,0.00
2023-04-02T00:12:34.680Z,0.00
2023-04-02T00:13:34.718Z,0.00
2023-04-02T00:14:34.668Z,0.00
2023-04-02T00:15:34.802Z,0.00
2023-04-02T00:16:34.675Z,0.00
2023-04-02T00:17:34.591Z,0.00
2023-04-02T00:18:34.641Z,0.00
2023-04-02T00:19:34.580Z,0.00
2023-04-02T00:20:34.594Z,0.00
2023-04-02T00:21:34.625Z,0.00
2023-04-02T00:22:34.562Z,0.00
2023-04-02T00:23:34.585Z,0.00
2023-04-02T00:24:34.519Z,0.00
2023-04-02T00:25:34.660Z,0.00
2023-04-02T00:26:34.545Z,0.00
2023-04-02T00:27:34.579Z,0.00
2023-04-02T00:28:34.567Z,0.00
2023-04-02T00:29:34.480Z,0.00
2023-04-02T00:30:34.558Z,0.00
2023-04-02T00:31:34.484Z,0.00
2023-04-02T00:32:34.452Z,0.00
2023-04-02T00:33:34.420Z,0.00
2023-04-02T00:34:34.467Z,0.00
2023-04-02T00:35:34.654Z,0.00
2023-04-02T00:36:34.456Z,0.00
2023-04-02T00:37:34.370Z,0.00
2023-04-02T00:38:34.416Z,0.00
2023-04-02T00:39:34.383Z,0.00
2023-04-02T00:40:34.445Z,0.00
2023-04-02T00:41:34.396Z,0.00
2023-04-02T00:42:34.361Z,0.00
2023-04-02T00:43:34.396Z,0.00
2023-04-02T00:44:34.285Z,0.00
2023-04-02T00:45:34.480Z,0.00
2023-04-02T00:46:34.290Z,0.00
2023-04-02T00:47:34.278Z,0.00
2023-04-02T00:48:55.313Z,0.00
2023-04-02T00:49:34.216Z,0.00
2023-04-02T00:50:34.263Z,0.00
2023-04-02T00:51:34.221Z,0.00
2023-04-02T00:52:34.198Z,0.00
2023-04-02T00:53:34.167Z,0.00
2023-04-02T00:54:34.472Z,0.00
2023-04-02T00:55:34.309Z,0.00
2023-04-02T00:56:34.196Z,0.00
2023-04-02T00:57:34.227Z,0.00
2023-04-02T00:58:34.115Z,0.00
2023-04-02T00:59:34.182Z,0.00
2023-04-02T01:00:34.117Z,0.00
2023-04-02T01:01:34.143Z,0.00
2023-04-02T01:02:34.219Z,0.00
2023-04-02T01:03:34.303Z,0.00
2023-04-02T01:04:34.038Z,0.00
2023-04-02T01:05:34.265Z,0.00
2023-04-02T01:06:34.123Z,0.00
2023-04-02T01:07:34.035Z,0.00
2023-04-02T01:08:34.050Z,0.00
2023-04-02T01:09:34.033Z,0.00
2023-04-02T01:10:34.079Z,0.00
2023-04-02T01:11:34.066Z,0.00
2023-04-02T01:12:33.969Z,0.00
2023-04-02T01:13:33.953Z,0.00
2023-04-02T01:14:33.964Z,0.00
2023-04-02T01:15:34.370Z,0.00
2023-04-02T01:16:33.891Z,0.00
2023-04-02T01:17:33.904Z,0.00
2023-04-02T01:18:33.964Z,0.00
2023-04-02T01:19:33.908Z,0.00
2023-04-02T01:20:33.862Z,0.00
2023-04-02T01:21:33.965Z,0.00
2023-04-02T01:22:33.874Z,0.00
2023-04-02T01:23:33.801Z,0.00
2023-04-02T01:24:33.793Z,0.00
2023-04-02T01:25:34.042Z,0.00
2023-04-02T01:26:33.775Z,0.00
2023-04-02T01:27:33.747Z,0.00
2023-04-02T01:28:33.744Z,0.00
2023-04-02T01:29:33.715Z,0.00
2023-04-02T01:30:33.745Z,0.00
2023-04-02T01:31:33.779Z,0.00
2023-04-02T01:32:33.707Z,0.00
2023-04-02T01:33:33.708Z,0.00
2023-04-02T01:34:33.668Z,0.00
2023-04-02T01:35:33.969Z,0.00
2023-04-02T01:36:33.689Z,0.00
2023-04-02T01:37:33.615Z,0.00
2023-04-02T01:38:33.632Z,0.00
2023-04-02T01:39:33.660Z,0.00
2023-04-02T01:40:33.617Z,0.00
2023-04-02T01:41:33.607Z,0.00
2023-04-02T01:42:33.581Z,0.00
2023-04-02T01:43:33.590Z,0.00
2023-04-02T01:44:33.535Z,0.00
2023-04-02T01:45:33.684Z,0.00
2023-04-02T01:46:33.544Z,0.00
2023-04-02T01:47:33.526Z,0.00
2023-04-02T01:48:33.543Z,0.00
2023-04-02T01:49:33.510Z,0.00
2023-04-02T01:50:33.466Z,0.00
2023-04-02T01:51:33.479Z,0.00
2023-04-02T01:52:33.440Z,0.00
2023-04-02T01:53:33.461Z,0.00
2023-04-02T01:54:33.431Z,0.00
2023-04-02T01:55:33.658Z,0.00
2023-04-02T01:56:33.426Z,0.00
2023-04-02T01:57:33.474Z,0.00
2023-04-02T01:58:33.367Z,0.00
2023-04-02T01:59:33.396Z,0.00
2023-04-02T02:00:33.466Z,0.00
2023-04-02T02:01:33.392Z,0.00
2023-04-02T02:02:33.457Z,0.00
2023-04-02T02:03:33.365Z,0.00
2023-04-02T02:04:33.298Z,0.00
2023-04-02T02:05:33.572Z,0.00
2023-04-02T02:06:33.300Z,0.00
2023-04-02T02:07:33.278Z,0.00
2023-04-02T02:08:33.261Z,0.00
2023-04-02T02:09:33.250Z,0.00
2023-04-02T02:10:33.212Z,0.00
2023-04-02T02:11:33.254Z,0.00
2023-04-02T02:12:33.197Z,0.00
2023-04-02T02:13:33.269Z,0.00
2023-04-02T02:14:33.164Z,0.00
2023-04-02T02:15:33.589Z,0.00
2023-04-02T02:16:33.181Z,0.00
2023-04-02T02:17:33.180Z,0.00
2023-04-02T02:18:33.147Z,0.00
2023-04-02T02:19:33.161Z,0.00
2023-04-02T02:20:33.124Z,0.00
2023-04-02T02:21:33.063Z,0.00
2023-04-02T02:22:33.063Z,0.00
2023-04-02T02:23:33.042Z,0.00
2023-04-02T02:24:33.042Z,0.00
2023-04-02T02:25:33.356Z,0.00
2023-04-02T02:26:33.002Z,0.00
2023-04-02T02:27:33.154Z,0.00
2023-04-02T02:28:33.072Z,0.00
2023-04-02T02:29:32.970Z,0.00
2023-04-02T02:30:32.979Z,0.00
2023-04-02T02:31:33.168Z,0.00
2023-04-02T02:32:32.952Z,0.00
2023-04-02T02:33:33.012Z,0.00
2023-04-02T02:34:32.912Z,0.00
2023-04-02T02:35:33.134Z,0.00
2023-04-02T02:36:32.923Z,0.00
2023-04-02T02:37:32.908Z,0.00
2023-04-02T02:38:32.867Z,0.00
2023-04-02T02:39:32.879Z,0.00
2023-04-02T02:40:32.819Z,0.00
2023-04-02T02:41:32.833Z,0.00
2023-04-02T02:42:32.867Z,0.00
2023-04-02T02:43:32.826Z,0.00
2023-04-02T02:44:32.785Z,0.00
2023-04-02T02:45:33.059Z,0.00
2023-04-02T02:46:34.044Z,0.00
2023-04-02T02:47:32.809Z,0.00
2023-04-02T02:48:32.778Z,0.00
2023-04-02T02:49:32.814Z,0.00
2023-04-02T02:50:32.735Z,0.00
2023-04-02T02:51:32.752Z,0.00
2023-04-02T02:52:32.758Z,0.00
2023-04-02T02:53:32.687Z,0.00
2023-04-02T02:54:32.696Z,0.00
2023-04-02T02:55:33.169Z,0.00
2023-04-02T02:56:32.678Z,0.00
2023-04-02T02:57:32.730Z,0.00
2023-04-02T02:58:32.641Z,0.00
2023-04-02T02:59:32.577Z,0.00
2023-04-02T03:00:32.632Z,0.00
2023-04-02T03:01:32.622Z,0.00
2023-04-02T03:02:32.689Z,0.00
2023-04-02T03:03:32.828Z,0.00
2023-04-02T03:04:32.599Z,0.00
2023-04-02T03:05:32.600Z,0.00
2023-04-02T03:06:32.518Z,0.00
2023-04-02T03:07:32.558Z,0.00
2023-04-02T03:08:32.548Z,0.00
2023-04-02T03:09:32.480Z,0.00
2023-04-02T03:10:32.561Z,0.00
2023-04-02T03:11:32.448Z,0.00
2023-04-02T03:12:32.477Z,0.00
2023-04-02T03:13:32.438Z,0.00
2023-04-02T03:14:32.438Z,0.00
2023-04-02T03:15:32.517Z,0.00
2023-04-02T03:16:32.446Z,0.00
2023-04-02T03:17:32.478Z,0.00
2023-04-02T03:18:32.424Z,0.00
2023-04-02T03:19:32.373Z,0.00
2023-04-02T03:20:32.366Z,0.00
2023-04-02T03:21:32.446Z,0.00
2023-04-02T03:22:32.310Z,0.00
2023-04-02T03:23:32.325Z,0.00
2023-04-02T03:24:32.286Z,0.00
2023-04-02T03:25:32.369Z,0.00
2023-04-02T03:26:32.279Z,0.00
2023-04-02T03:27:32.300Z,0.00
2023-04-02T03:28:32.270Z,0.00
2023-04-02T03:29:32.235Z,0.00
2023-04-02T03:30:32.274Z,0.00
2023-04-02T03:31:32.257Z,0.00
2023-04-02T03:32:32.222Z,0.00
2023-04-02T03:33:32.186Z,0.00
2023-04-02T03:34:39.685Z,0.00
2023-04-02T03:35:32.164Z,0.00
2023-04-02T03:36:32.131Z,0.00
2023-04-02T03:37:32.115Z,0.00
2023-04-02T03:38:32.133Z,0.00
2023-04-02T03:39:32.114Z,0.00
2023-04-02T03:40:32.105Z,0.00
2023-04-02T03:41:32.093Z,0.00
2023-04-02T03:42:32.079Z,0.00
2023-04-02T03:43:32.030Z,0.00
2023-04-02T03:44:32.054Z,0.00
2023-04-02T03:45:32.102Z,0.00
2023-04-02T03:46:32.053Z,0.00
2023-04-02T03:47:31.984Z,0.00
2023-04-02T03:48:32.020Z,0.00
2023-04-02T03:49:32.016Z,0.00
2023-04-02T03:50:31.996Z,0.00
2023-04-02T03:51:31.966Z,0.00
2023-04-02T03:52:31.928Z,0.00
2023-04-02T03:53:31.920Z,0.00
2023-04-02T03:54:32.014Z,0.00
2023-04-02T03:55:31.981Z,0.00
2023-04-02T03:56:31.950Z,0.00
2023-04-02T03:57:31.967Z,0.00
2023-04-02T03:58:31.904Z,0.00
2023-04-02T03:59:31.879Z,0.00
2023-04-02T04:00:31.863Z,0.00
2023-04-02T04:01:31.863Z,0.00
2023-04-02T04:02:31.863Z,0.00
2023-04-02T04:03:31.791Z,0.00
2023-04-02T04:04:31.959Z,0.00
2023-04-02T04:05:31.821Z,0.00
2023-04-02T04:06:31.859Z,0.00
2023-04-02T04:07:31.778Z,0.00
2023-04-02T04:08:31.734Z,0.00
2023-04-02T04:09:31.737Z,0.00
2023-04-02T04:10:31.722Z,0.00
2023-04-02T04:11:31.673Z,0.00
2023-04-02T04:12:31.698Z,0.00
2023-04-02T04:13:31.661Z,0.00
2023-04-02T04:14:31.658Z,0.00
2023-04-02T04:15:31.740Z,0.00
2023-04-02T04:16:31.858Z,0.00
2023-04-02T04:17:31.671Z,0.00
2023-04-02T04:18:31.626Z,0.00
2023-04-02T04:19:31.635Z,0.00
2023-04-02T04:20:31.725Z,0.00
2023-04-02T04:21:31.576Z,0.00
2023-04-02T04:22:31.712Z,0.00
2023-04-02T04:23:31.551Z,0.00
2023-04-02T04:24:31.532Z,0.00
2023-04-02T04:25:31.835Z,0.00
2023-04-02T04:26:31.522Z,0.00
2023-04-02T04:27:31.610Z,0.00
2023-04-02T04:28:31.456Z,0.00
2023-04-02T04:29:32.057Z,0.00
2023-04-02T04:30:31.573Z,0.00
2023-04-02T04:31:33.209Z,0.00
2023-04-02T04:32:32.591Z,0.00
2023-04-02T04:33:31.387Z,0.00
2023-04-02T04:34:31.429Z,0.00
2023-04-02T04:35:31.429Z,0.00
2023-04-02T04:36:31.435Z,0.00
2023-04-02T04:37:32.933Z,0.00
2023-04-02T04:38:31.374Z,0.00
2023-04-02T04:39:31.349Z,0.00
2023-04-02T04:40:31.929Z,0.00
2023-04-02T04:41:31.285Z,0.00
2023-04-02T04:42:33.929Z,0.00
2023-04-02T04:43:41.590Z,0.00
2023-04-02T04:44:31.270Z,0.00
2023-04-02T04:45:31.266Z,0.00
2023-04-02T04:46:31.473Z,4.00
2023-04-02T04:47:31.296Z,4.00
2023-04-02T04:48:31.324Z,0.00
2023-04-02T04:49:31.244Z,0.00
2023-04-02T04:50:31.252Z,4.00
2023-04-02T04:51:31.301Z,4.00
2023-04-02T04:52:31.192Z,4.00
2023-04-02T04:53:31.211Z,4.00
2023-04-02T04:54:31.229Z,4.00
2023-04-02T04:55:31.205Z,4.00
2023-04-02T04:56:31.182Z,8.00
2023-04-02T04:57:31.189Z,4.00
2023-04-02T04:58:31.184Z,8.00
2023-04-02T04:59:31.177Z,8.00
2023-04-02T05:00:31.185Z,8.00
2023-04-02T05:01:31.078Z,12.00
2023-04-02T05:02:31.198Z,12.00
2023-04-02T05:03:31.062Z,12.00
2023-04-02T05:04:31.267Z,16.00
2023-04-02T05:05:31.111Z,20.00
2023-04-02T05:06:31.065Z,20.00
2023-04-02T05:09:00.226Z,28.00
2023-04-02T05:09:59.990Z,28.00
2023-04-02T05:11:00.112Z,36.00
2023-04-02T05:12:08.991Z,36.00
2023-04-02T05:13:00.155Z,36.00
2023-04-02T05:13:59.930Z,36.00
2023-04-02T05:15:10.118Z,44.00
2023-04-02T05:16:01.272Z,44.00
2023-04-02T05:17:09.085Z,52.00
2023-04-02T05:17:59.903Z,52.00
2023-04-02T05:19:00.503Z,52.00
2023-04-02T05:19:59.823Z,72.00
2023-04-02T05:21:11.107Z,68.00
2023-04-02T05:21:59.899Z,64.00
2023-04-02T05:22:59.965Z,68.00
2023-04-02T05:23:59.868Z,72.00
2023-04-02T05:24:59.851Z,72.00
2023-04-02T05:25:59.793Z,84.00
2023-04-02T05:26:59.759Z,92.00
2023-04-02T05:27:59.852Z,96.00
2023-04-02T05:28:59.876Z,108.00
2023-04-02T05:29:59.889Z,116.00
2023-04-02T05:30:59.933Z,116.00
2023-04-02T05:32:00.001Z,132.00
2023-04-02T05:32:59.789Z,148.00
2023-04-02T05:33:59.750Z,160.00
2023-04-02T05:34:59.761Z,160.00
2023-04-02T05:36:00.064Z,172.00
2023-04-02T05:36:59.752Z,168.00
2023-04-02T05:37:59.682Z,180.00
2023-04-02T05:38:59.716Z,168.00
2023-04-02T05:39:59.784Z,180.00
2023-04-02T05:40:59.900Z,196.00
2023-04-02T05:41:59.599Z,208.00
2023-04-02T05:42:59.795Z,216.00
2023-04-02T05:43:59.646Z,212.00
2023-04-02T05:44:59.639Z,200.00
2023-04-02T05:45:59.598Z,188.00
2023-04-02T05:46:59.617Z,196.00
2023-04-02T05:47:59.637Z,200.00
2023-04-02T05:48:59.472Z,204.00
2023-04-02T05:49:59.505Z,208.00
2023-04-02T05:50:59.536Z,220.00
2023-04-02T05:51:59.550Z,232.00
2023-04-02T05:52:59.520Z,240.00
2023-04-02T05:53:59.464Z,240.00
2023-04-02T05:54:59.540Z,236.00
2023-04-02T05:55:59.414Z,240.00
2023-04-02T05:56:59.706Z,244.00
2023-04-02T05:58:21.182Z,252.00
2023-04-02T05:59:00.642Z,272.00
2023-04-02T05:59:59.577Z,288.00
2023-04-02T06:00:59.519Z,316.00
2023-04-02T06:01:59.538Z,348.00
2023-04-02T06:02:59.519Z,372.00
2023-04-02T06:03:59.622Z,396.00
2023-04-02T06:04:59.241Z,388.00
2023-04-02T06:05:59.300Z,388.00
2023-04-02T06:06:59.391Z,388.00
2023-04-02T06:07:59.265Z,412.00
2023-04-02T06:08:59.255Z,472.00
2023-04-02T06:09:59.383Z,472.00
2023-04-02T06:10:59.159Z,496.00
2023-04-02T06:11:59.220Z,516.00
2023-04-02T06:12:59.231Z,548.00
2023-04-02T06:13:59.156Z,544.00
2023-04-02T06:14:59.151Z,596.00
2023-04-02T06:15:59.192Z,628.00
2023-04-02T06:16:59.373Z,664.00
2023-04-02T06:17:59.132Z,664.00
2023-04-02T06:18:59.102Z,664.00
2023-04-02T06:19:59.200Z,676.00
2023-04-02T06:20:59.079Z,672.00
2023-04-02T06:21:59.092Z,660.00
2023-04-02T06:22:59.127Z,732.00
2023-04-02T06:24:14.068Z,752.00
2023-04-02T06:24:58.981Z,728.00
2023-04-02T06:25:58.962Z,804.00
2023-04-02T06:26:58.968Z,824.00
2023-04-02T06:27:58.927Z,840.00
2023-04-02T06:28:58.945Z,840.00
2023-04-02T06:29:58.913Z,864.00
2023-04-02T06:30:58.961Z,868.00
2023-04-02T06:31:58.881Z,952.00
2023-04-02T06:32:58.895Z,948.00
2023-04-02T06:33:58.846Z,912.00
2023-04-02T06:34:58.895Z,892.00
2023-04-02T06:35:58.919Z,868.00
2023-04-02T06:36:58.867Z,844.00
2023-04-02T06:37:58.852Z,792.00
2023-04-02T06:38:58.824Z,808.00
2023-04-02T06:39:58.804Z,880.00
2023-04-02T06:40:59.164Z,852.00
2023-04-02T06:41:58.798Z,748.00
2023-04-02T06:42:58.760Z,780.00
2023-04-02T06:43:58.743Z,804.00
2023-04-02T06:44:58.747Z,828.00
2023-04-02T06:45:58.830Z,932.00
2023-04-02T06:47:03.857Z,968.00
2023-04-02T06:47:58.886Z,916.00
2023-04-02T06:48:58.661Z,932.00
2023-04-02T06:49:58.671Z,1052.00
2023-04-02T06:50:58.656Z,1112.00
2023-04-02T06:51:58.675Z,1156.00
2023-04-02T06:52:58.627Z,1104.00
2023-04-02T06:53:58.583Z,1132.00
2023-04-02T06:54:58.695Z,1100.00
2023-04-02T06:55:58.615Z,1176.00
2023-04-02T06:57:04.997Z,1152.00
2023-04-02T06:57:58.533Z,1188.00
2023-04-02T06:58:58.790Z,1300.00
2023-04-02T06:59:58.508Z,1468.00
2023-04-02T07:00:58.543Z,1476.00
2023-04-02T07:01:58.661Z,1420.00
2023-04-02T07:02:58.518Z,1360.00
2023-04-02T07:03:58.555Z,1472.00
2023-04-02T07:06:21.594Z,1628.00
2023-04-02T07:07:20.438Z,1580.00
2023-04-02T07:08:21.985Z,1572.00
2023-04-02T07:09:20.388Z,1724.00
2023-04-02T07:10:21.533Z,1812.00
2023-04-02T07:11:22.769Z,1816.00
2023-04-02T07:12:20.375Z,1884.00
2023-04-02T07:13:20.398Z,1788.00
2023-04-02T07:14:22.014Z,1820.00
2023-04-02T07:15:20.339Z,1804.00
2023-04-02T07:16:21.547Z,1848.00
2023-04-02T07:17:21.378Z,1928.00
2023-04-02T07:18:20.310Z,2000.00
2023-04-02T07:19:21.467Z,2004.00
2023-04-02T07:20:20.456Z,2016.00
2023-04-02T07:21:20.339Z,2164.00
2023-04-02T07:22:20.237Z,2220.00
2023-04-02T07:23:21.017Z,2124.00
2023-04-02T07:24:20.838Z,2224.00
2023-04-02T07:25:20.937Z,2188.00
2023-04-02T07:26:21.564Z,2176.00
2023-04-02T07:27:20.193Z,2416.00
2023-04-02T07:28:22.370Z,2416.00
2023-04-02T07:29:22.637Z,2284.00
2023-04-02T07:30:23.629Z,2068.00
2023-04-02T07:31:21.910Z,1932.00
2023-04-02T07:33:42.604Z,2068.00
2023-04-02T07:34:42.860Z,2196.00
2023-04-02T07:35:42.787Z,2128.00
2023-04-02T07:36:43.096Z,2048.00
2023-04-02T07:37:43.093Z,1956.00
2023-04-02T07:38:42.661Z,1900.00
2023-04-02T07:39:42.561Z,1884.00
2023-04-02T07:40:42.778Z,1888.00
2023-04-02T07:41:42.652Z,1988.00
2023-04-02T07:42:42.574Z,1904.00
2023-04-02T07:43:42.536Z,1824.00
2023-04-02T07:44:42.881Z,1816.00
2023-04-02T07:45:42.484Z,1976.00
2023-04-02T07:46:42.554Z,1972.00
2023-04-02T07:47:42.896Z,1944.00
2023-04-02T07:48:42.591Z,1892.00
2023-04-02T07:49:42.536Z,1880.00
2023-04-02T07:50:42.511Z,1876.00
2023-04-02T07:51:42.379Z,1856.00
2023-04-02T07:52:42.391Z,1932.00
2023-04-02T07:53:42.577Z,1860.00
2023-04-02T07:54:42.786Z,1896.00
2023-04-02T07:55:42.479Z,1912.00
2023-04-02T07:56:42.733Z,2044.00
2023-04-02T07:57:44.905Z,2184.00
2023-04-02T07:58:42.505Z,2284.00
2023-04-02T07:59:42.461Z,2212.00
2023-04-02T08:00:42.257Z,2232.00
2023-04-02T08:01:43.436Z,2264.00
2023-04-02T08:02:42.339Z,2208.00
2023-04-02T08:03:42.273Z,2396.00
2023-04-02T08:04:42.388Z,2652.00
2023-04-02T08:05:42.440Z,2668.00
2023-04-02T08:06:42.372Z,2656.00
2023-04-02T08:07:42.247Z,2788.00
2023-04-02T08:08:42.191Z,2924.00
2023-04-02T08:09:42.301Z,2872.00
2023-04-02T08:10:42.172Z,2964.00
2023-04-02T08:11:42.123Z,2908.00
2023-04-02T08:12:42.311Z,3040.00
2023-04-02T08:13:42.233Z,3112.00
2023-04-02T08:14:43.206Z,3288.00
2023-04-02T08:15:42.452Z,3284.00
2023-04-02T08:16:42.590Z,3224.00
2023-04-02T08:17:42.156Z,3244.00
2023-04-02T08:18:42.298Z,3136.00
2023-04-02T08:19:54.084Z,3176.00
2023-04-02T08:20:43.159Z,3172.00
2023-04-02T08:21:42.371Z,3268.00
2023-04-02T08:22:42.127Z,3416.00
2023-04-02T08:23:42.071Z,3548.00
2023-04-02T08:24:42.542Z,3368.00
2023-04-02T08:25:42.062Z,3312.00
2023-04-02T08:26:43.378Z,3548.00
2023-04-02T08:27:41.994Z,3820.00
2023-04-02T08:28:42.657Z,3632.00
2023-04-02T08:29:41.989Z,3560.00
2023-04-02T08:30:42.026Z,4228.00
2023-04-02T08:31:42.238Z,4048.00
2023-04-02T08:32:42.019Z,4072.00
2023-04-02T08:33:41.952Z,4388.00
2023-04-02T08:34:48.635Z,4372.00
2023-04-02T08:35:42.002Z,4292.00
2023-04-02T08:36:41.932Z,4588.00
2023-04-02T08:37:41.782Z,4160.00
2023-04-02T08:38:41.763Z,3900.00
2023-04-02T08:39:43.107Z,4248.00
2023-04-02T08:40:42.111Z,4312.00
2023-04-02T08:41:41.888Z,4332.00
2023-04-02T08:42:41.947Z,4300.00
2023-04-02T08:43:41.805Z,4740.00
2023-04-02T08:44:44.794Z,4676.00
2023-04-02T08:45:43.048Z,4960.00
2023-04-02T08:46:43.065Z,4712.00
2023-04-02T08:47:41.783Z,4728.00
2023-04-02T08:48:42.706Z,5000.00
2023-04-02T15:06:18.793Z,9188.00
2023-04-02T15:07:23.996Z,8852.00
2023-04-02T15:08:18.809Z,8780.00
2023-04-02T15:09:18.717Z,4368.00
2023-04-02T15:10:18.713Z,4016.00
2023-04-02T15:11:18.718Z,3804.00
2023-04-02T15:12:18.694Z,3340.00
2023-04-02T15:13:18.676Z,3068.00
2023-04-02T15:14:18.659Z,2728.00
2023-04-02T15:15:24.305Z,2580.00
2023-04-02T15:16:19.730Z,2652.00
2023-04-02T15:17:18.660Z,2892.00
2023-04-02T15:18:18.601Z,3188.00
2023-04-02T15:19:18.595Z,5400.00
2023-04-02T15:20:18.626Z,9748.00
2023-04-02T15:21:18.581Z,10468.00
2023-04-02T15:22:18.619Z,10808.00
2023-04-02T15:23:18.564Z,11156.00
2023-04-02T15:24:18.553Z,11252.00
2023-04-02T15:25:18.573Z,9064.00
2023-04-02T15:26:18.523Z,9316.00
2023-04-02T15:27:25.109Z,6700.00
2023-04-02T15:28:19.493Z,6472.00
2023-04-02T15:29:28.406Z,3852.00
2023-04-02T15:30:19.508Z,3616.00
2023-04-02T15:31:18.564Z,3556.00
2023-04-02T15:32:18.430Z,3748.00
2023-04-02T15:33:18.445Z,3940.00
2023-04-02T15:34:18.385Z,3832.00
2023-04-02T15:35:18.464Z,3612.00
2023-04-02T15:36:18.494Z,3532.00
2023-04-02T15:37:18.420Z,6900.00
2023-04-02T15:38:18.338Z,4008.00
2023-04-02T15:39:18.336Z,3852.00
2023-04-02T15:40:18.335Z,3896.00
2023-04-02T15:41:18.344Z,4940.00
2023-04-02T15:42:18.425Z,4072.00
2023-04-02T15:43:18.298Z,6260.00
2023-04-02T15:44:19.264Z,3380.00
2023-04-02T15:45:18.297Z,2908.00
2023-04-02T15:46:18.321Z,2564.00
2023-04-02T15:47:18.264Z,2420.00
2023-04-02T15:48:18.331Z,2368.00
2023-04-02T15:49:18.275Z,2344.00
2023-04-02T15:50:18.339Z,2592.00
2023-04-02T15:51:18.140Z,2632.00
2023-04-02T15:52:18.140Z,2520.00
2023-04-02T15:53:18.222Z,2664.00
2023-04-02T15:54:18.167Z,3184.00
2023-04-02T15:55:18.122Z,4836.00
2023-04-02T15:56:18.082Z,6060.00
2023-04-02T15:57:18.118Z,6180.00
2023-04-02T15:58:18.078Z,6104.00
2023-04-02T15:59:18.089Z,4380.00
2023-04-02T16:00:18.169Z,3324.00
2023-04-02T16:01:18.246Z,3040.00
2023-04-02T16:02:18.007Z,3716.00
2023-04-02T16:03:20.198Z,2604.00
2023-04-02T16:04:19.584Z,2516.00
2023-04-02T16:05:18.170Z,2460.00
2023-04-02T16:06:17.973Z,2392.00
2023-04-02T16:07:17.945Z,2356.00
2023-04-02T16:08:17.991Z,2728.00
2023-04-02T16:09:17.928Z,3952.00
2023-04-02T16:10:20.702Z,3640.00
2023-04-02T16:11:19.669Z,3436.00
2023-04-02T16:12:17.993Z,3420.00
2023-04-02T16:13:17.949Z,3464.00
2023-04-02T16:14:17.848Z,3248.00
2023-04-02T16:15:18.142Z,3040.00
2023-04-02T16:16:17.859Z,2968.00
2023-04-02T16:17:24.882Z,2860.00
2023-04-02T16:18:18.830Z,2804.00
2023-04-02T16:19:18.001Z,2756.00
2023-04-02T16:20:17.735Z,2716.00
2023-04-02T16:21:18.092Z,2588.00
2023-04-02T16:22:17.845Z,2532.00
2023-04-02T16:23:17.982Z,2464.00
2023-04-02T16:24:17.722Z,2412.00
2023-04-02T16:25:17.639Z,2364.00
2023-04-02T16:26:17.688Z,2344.00
2023-04-02T16:27:17.678Z,2312.00
2023-04-02T16:28:17.635Z,2280.00
2023-04-02T16:29:17.670Z,2284.00
2023-04-02T16:30:17.643Z,2244.00
2023-04-02T16:31:18.114Z,2196.00
2023-04-02T16:32:17.575Z,2208.00
2023-04-02T16:33:18.618Z,2112.00
2023-04-02T16:34:18.818Z,2136.00
2023-04-02T16:35:40.933Z,2148.00
2023-04-02T16:36:30.133Z,2288.00
2023-04-02T16:37:19.015Z,2748.00
2023-04-02T16:38:17.783Z,2840.00
2023-04-02T16:39:18.478Z,2216.00
2023-04-02T16:40:17.445Z,1744.00
2023-04-02T16:41:17.474Z,1504.00
2023-04-02T16:42:20.162Z,1620.00
2023-04-02T16:43:18.778Z,1444.00
2023-04-02T16:44:18.853Z,1868.00
2023-04-02T16:45:19.168Z,1832.00
2023-04-02T16:46:28.255Z,1816.00
2023-04-02T16:47:18.352Z,1784.00
2023-04-02T16:48:18.928Z,1760.00
2023-04-02T16:49:17.354Z,1736.00
2023-04-02T16:50:20.022Z,1688.00
2023-04-02T16:51:17.377Z,1664.00
2023-04-02T16:52:17.816Z,1648.00
2023-04-02T16:53:17.869Z,1640.00
2023-04-02T16:54:17.377Z,1628.00
2023-04-02T16:55:17.381Z,1588.00
2023-04-02T16:56:20.024Z,1428.00
2023-04-02T16:57:17.408Z,1540.00
2023-04-02T16:58:19.409Z,1608.00
2023-04-02T16:59:17.250Z,1668.00
2023-04-02T17:00:17.862Z,1620.00
2023-04-02T17:01:17.229Z,1628.00
2023-04-02T17:02:17.213Z,1532.00
2023-04-02T17:03:17.439Z,1516.00
2023-04-02T17:04:17.305Z,1348.00
2023-04-02T17:05:17.195Z,1420.00
2023-04-02T17:06:17.141Z,1340.00
2023-04-02T17:07:17.170Z,1264.00
2023-04-02T17:08:17.138Z,1224.00
2023-04-02T17:09:17.173Z,1204.00
2023-04-02T17:10:17.099Z,1180.00
2023-04-02T17:11:17.078Z,1144.00
2023-04-02T17:12:17.060Z,1136.00
2023-04-02T17:13:17.159Z,1092.00
2023-04-02T17:14:20.140Z,1064.00
2023-04-02T17:15:27.182Z,1052.00
2023-04-02T17:16:18.007Z,1032.00
2023-04-02T17:17:16.970Z,1016.00
2023-04-02T17:18:17.809Z,996.00
2023-04-02T17:19:16.942Z,980.00
2023-04-02T17:20:17.033Z,964.00
2023-04-02T17:21:19.665Z,948.00
2023-04-02T17:22:27.955Z,912.00
2023-04-02T17:23:16.956Z,912.00
2023-04-02T17:24:16.966Z,888.00
2023-04-02T17:25:16.860Z,864.00
2023-04-02T17:26:16.959Z,844.00
2023-04-02T17:27:16.837Z,840.00
2023-04-02T17:28:16.915Z,816.00
2023-04-02T17:29:16.865Z,800.00
2023-04-02T17:30:16.893Z,788.00
2023-04-02T17:31:16.866Z,764.00
2023-04-02T17:32:17.024Z,740.00
2023-04-02T17:33:17.120Z,724.00
2023-04-02T17:34:16.859Z,704.00
2023-04-02T17:35:16.977Z,684.00
2023-04-02T17:36:16.804Z,664.00
2023-04-02T17:37:16.724Z,640.00
2023-04-02T17:38:16.777Z,628.00
2023-04-02T17:39:16.816Z,596.00
2023-04-02T17:40:16.865Z,580.00
2023-04-02T17:41:16.690Z,564.00
2023-04-02T17:42:16.687Z,544.00
2023-04-02T17:43:16.702Z,516.00
2023-04-02T17:44:16.757Z,504.00
2023-04-02T17:45:16.650Z,480.00
2023-04-02T17:46:18.011Z,460.00
2023-04-02T17:47:17.150Z,444.00
2023-04-02T17:48:16.691Z,424.00
2023-04-02T17:49:16.581Z,404.00
2023-04-02T17:50:16.755Z,388.00
2023-04-02T17:51:16.774Z,368.00
2023-04-02T17:52:16.920Z,348.00
2023-04-02T17:53:16.913Z,332.00
2023-04-02T17:54:16.699Z,312.00
2023-04-02T17:55:16.867Z,292.00
2023-04-02T17:56:16.565Z,276.00
2023-04-02T17:57:17.167Z,256.00
2023-04-02T17:58:16.721Z,240.00
2023-04-02T17:59:16.783Z,224.00
2023-04-02T18:00:16.797Z,208.00
2023-04-02T18:01:20.527Z,196.00
2023-04-02T18:02:16.661Z,180.00
2023-04-02T18:03:16.633Z,164.00
2023-04-02T18:04:16.479Z,152.00
2023-04-02T18:05:16.646Z,136.00
2023-04-02T18:06:16.580Z,124.00
2023-04-02T18:07:16.556Z,112.00
2023-04-02T18:08:16.672Z,100.00
2023-04-02T18:09:16.550Z,92.00
2023-04-02T18:10:16.560Z,80.00
2023-04-02T18:11:16.627Z,72.00
2023-04-02T18:12:16.402Z,64.00
2023-04-02T18:13:16.309Z,60.00
2023-04-02T18:14:16.660Z,48.00
2023-04-02T18:15:16.585Z,44.00
2023-04-02T18:16:27.263Z,40.00
2023-04-02T18:17:27.758Z,32.00
2023-04-02T18:18:16.713Z,28.00
2023-04-02T18:19:16.440Z,24.00
2023-04-02T18:20:16.533Z,24.00
2023-04-02T18:21:16.275Z,16.00
2023-04-02T18:22:16.262Z,16.00
2023-04-02T18:23:16.215Z,16.00
2023-04-02T18:24:16.285Z,12.00
2023-04-02T18:25:16.588Z,8.00
2023-04-02T18:26:16.153Z,8.00
2023-04-02T18:27:16.862Z,8.00
2023-04-02T18:28:16.172Z,4.00
2023-04-02T18:29:16.232Z,8.00
2023-04-02T18:30:16.802Z,4.00
2023-04-02T18:31:16.310Z,4.00
2023-04-02T18:32:16.221Z,0.00
2023-04-02T18:33:17.796Z,4.00
2023-04-02T18:34:16.160Z,0.00
2023-04-02T18:35:16.269Z,4.00
2023-04-02T18:36:16.480Z,0.00
2023-04-02T18:37:16.644Z,0.00
2023-04-02T18:38:16.555Z,0.00
2023-04-02T18:39:16.587Z,0.00
2023-04-02T18:40:16.033Z,0.00
2023-04-02T18:41:17.311Z,0.00
2023-04-02T18:42:16.124Z,0.00
2023-04-02T18:43:16.734Z,0.00
2023-04-02T18:44:16.681Z,0.00
2023-04-02T18:45:17.893Z,0.00
2023-04-02T18:46:16.740Z,0.00
2023-04-02T18:47:18.130Z,0.00
2023-04-02T18:48:18.332Z,0.00
2023-04-02T18:49:16.393Z,0.00
2023-04-02T18:50:16.617Z,0.00
2023-04-02T18:51:16.082Z,0.00
2023-04-02T18:52:16.350Z,0.00
2023-04-02T18:53:16.494Z,0.00
2023-04-02T18:54:16.137Z,0.00
2023-04-02T18:55:15.920Z,0.00
2023-04-02T18:56:15.829Z,0.00
2023-04-02T18:57:15.907Z,0.00
2023-04-02T18:58:15.735Z,0.00
2023-04-02T18:59:15.785Z,0.00
2023-04-02T19:00:15.754Z,0.00
2023-04-02T19:01:15.827Z,0.00
2023-04-02T19:02:15.753Z,0.00
2023-04-02T19:03:17.133Z,0.00
2023-04-02T19:04:15.652Z,0.00